sensor_id;sensor_type;location;lat;lon;timestamp;temperature;humidity
7048;DHT22;3565;53.254;10.352;2022-10-26T00:02:46;9.30;1.00
7048;DHT22;3565;53.254;10.352;2022-10-26T00:07:43;9.30;1.00
7048;DHT22;3565;53.254;10.352;2022-10-26T00:10:12;9.30;1.00
7048;DHT22;3565;53.254;10.352;2022-10-26T00:12:41;9.20;1.00
7048;DHT22;3565;53.254;10.352;2022-10-26T00:15:10;9.10;1.00
7048;DHT22;3565;53.254;10.352;2022-10-26T00:20:09;9.00;1.00
7048;DHT22;3565;53.254;10.352;2022-10-26T00:22:38;9.00;1.00
7048;DHT22;3565;53.254;10.352;2022-10-26T00:25:08;8.90;1.00
7048;DHT22;3565;53.254;10.352;2022-10-26T00:27:37;8.80;1.00
7048;DHT22;3565;53.254;10.352;2022-10-26T00:30:08;8.90;1.00
7048;DHT22;3565;53.254;10.352;2022-10-26T00:32:37;9.00;1.00
7048;DHT22;3565;53.254;10.352;2022-10-26T00:35:07;8.80;1.00
7048;DHT22;3565;53.254;10.352;2022-10-26T00:37:35;8.90;1.00
7048;DHT22;3565;53.254;10.352;2022-10-26T00:42:34;8.70;1.00
7048;DHT22;3565;53.254;10.352;2022-10-26T00:47:39;8.70;1.00
7048;DHT22;3565;53.254;10.352;2022-10-26T00:50:12;8.70;1.00
7048;DHT22;3565;53.254;10.352;2022-10-26T00:55:10;8.60;1.00
7048;DHT22;3565;53.254;10.352;2022-10-26T00:57:39;8.60;1.00
7048;DHT22;3565;53.254;10.352;2022-10-26T01:00:10;8.60;1.00
7048;DHT22;3565;53.254;10.352;2022-10-26T01:02:39;8.50;1.00
7048;DHT22;3565;53.254;10.352;2022-10-26T01:05:09;8.40;1.00
7048;DHT22;3565;53.254;10.352;2022-10-26T01:07:39;8.50;1.00
7048;DHT22;3565;53.254;10.352;2022-10-26T01:10:10;8.40;1.00
7048;DHT22;3565;53.254;10.352;2022-10-26T01:12:40;8.40;1.00
7048;DHT22;3565;53.254;10.352;2022-10-26T01:15:10;8.40;1.00
7048;DHT22;3565;53.254;10.352;2022-10-26T01:23:23;8.20;1.00
7048;DHT22;3565;53.254;10.352;2022-10-26T01:26:16;8.10;1.00
7048;DHT22;3565;53.254;10.352;2022-10-26T01:29:11;8.10;1.00
7048;DHT22;3565;53.254;10.352;2022-10-26T01:31:43;8.10;1.00
7048;DHT22;3565;53.254;10.352;2022-10-26T01:34:16;8.10;1.00
7048;DHT22;3565;53.254;10.352;2022-10-26T01:36:48;8.10;1.00
7048;DHT22;3565;53.254;10.352;2022-10-26T01:39:20;8.10;1.00
7048;DHT22;3565;53.254;10.352;2022-10-26T01:41:54;8.20;1.00
7048;DHT22;3565;53.254;10.352;2022-10-26T01:49:31;8.10;1.00
7048;DHT22;3565;53.254;10.352;2022-10-26T01:52:01;8.20;1.00
7048;DHT22;3565;53.254;10.352;2022-10-26T01:54:30;8.20;1.00
7048;DHT22;3565;53.254;10.352;2022-10-26T01:57:02;8.10;1.00
7048;DHT22;3565;53.254;10.352;2022-10-26T01:59:47;8.10;1.00
7048;DHT22;3565;53.254;10.352;2022-10-26T02:02:29;8.00;1.00
7048;DHT22;3565;53.254;10.352;2022-10-26T02:05:27;8.00;1.00
7048;DHT22;3565;53.254;10.352;2022-10-26T02:08:01;7.90;1.00
7048;DHT22;3565;53.254;10.352;2022-10-26T02:10:36;7.90;1.00
7048;DHT22;3565;53.254;10.352;2022-10-26T02:15:55;8.00;1.00
7048;DHT22;3565;53.254;10.352;2022-10-26T02:18:29;8.00;1.00
7048;DHT22;3565;53.254;10.352;2022-10-26T02:21:02;7.90;1.00
7048;DHT22;3565;53.254;10.352;2022-10-26T02:23:34;7.80;1.00
7048;DHT22;3565;53.254;10.352;2022-10-26T02:26:06;7.80;1.00
7048;DHT22;3565;53.254;10.352;2022-10-26T02:28:38;7.80;1.00
7048;DHT22;3565;53.254;10.352;2022-10-26T02:31:08;7.70;1.00
7048;DHT22;3565;53.254;10.352;2022-10-26T02:33:40;7.70;1.00
7048;DHT22;3565;53.254;10.352;2022-10-26T02:36:14;7.70;1.00
7048;DHT22;3565;53.254;10.352;2022-10-26T02:38:42;7.70;1.00
7048;DHT22;3565;53.254;10.352;2022-10-26T02:41:14;7.70;1.00
7048;DHT22;3565;53.254;10.352;2022-10-26T02:43:46;7.60;1.00
7048;DHT22;3565;53.254;10.352;2022-10-26T02:46:16;7.70;1.00
7048;DHT22;3565;53.254;10.352;2022-10-26T02:48:47;7.70;1.00
7048;DHT22;3565;53.254;10.352;2022-10-26T02:51:19;7.70;1.00
7048;DHT22;3565;53.254;10.352;2022-10-26T02:53:52;7.60;1.00
7048;DHT22;3565;53.254;10.352;2022-10-26T02:59:03;7.50;1.00
7048;DHT22;3565;53.254;10.352;2022-10-26T03:01:34;7.50;1.00
7048;DHT22;3565;53.254;10.352;2022-10-26T03:04:03;7.50;1.00
7048;DHT22;3565;53.254;10.352;2022-10-26T03:06:32;7.50;1.00
7048;DHT22;3565;53.254;10.352;2022-10-26T03:09:00;7.50;1.00
7048;DHT22;3565;53.254;10.352;2022-10-26T03:11:29;7.50;1.00
7048;DHT22;3565;53.254;10.352;2022-10-26T03:13:58;7.50;1.00
7048;DHT22;3565;53.254;10.352;2022-10-26T03:16:27;7.50;1.00
7048;DHT22;3565;53.254;10.352;2022-10-26T03:18:56;7.50;1.00
7048;DHT22;3565;53.254;10.352;2022-10-26T03:21:25;7.50;1.00
7048;DHT22;3565;53.254;10.352;2022-10-26T03:23:55;7.50;1.00
7048;DHT22;3565;53.254;10.352;2022-10-26T03:26:24;7.60;1.00
7048;DHT22;3565;53.254;10.352;2022-10-26T03:28:53;7.50;1.00
7048;DHT22;3565;53.254;10.352;2022-10-26T03:31:21;7.50;1.00
7048;DHT22;3565;53.254;10.352;2022-10-26T03:36:18;7.50;1.00
7048;DHT22;3565;53.254;10.352;2022-10-26T03:38:47;7.50;1.00
7048;DHT22;3565;53.254;10.352;2022-10-26T03:41:15;7.50;1.00
7048;DHT22;3565;53.254;10.352;2022-10-26T03:46:12;7.50;1.00
7048;DHT22;3565;53.254;10.352;2022-10-26T03:48:41;7.50;1.00
7048;DHT22;3565;53.254;10.352;2022-10-26T03:51:10;7.50;1.00
7048;DHT22;3565;53.254;10.352;2022-10-26T03:53:39;7.50;1.00
7048;DHT22;3565;53.254;10.352;2022-10-26T03:56:08;7.40;1.00
7048;DHT22;3565;53.254;10.352;2022-10-26T03:58:37;7.50;1.00
7048;DHT22;3565;53.254;10.352;2022-10-26T04:01:06;7.40;1.00
7048;DHT22;3565;53.254;10.352;2022-10-26T04:03:34;7.40;1.00
7048;DHT22;3565;53.254;10.352;2022-10-26T04:06:04;7.40;1.00
7048;DHT22;3565;53.254;10.352;2022-10-26T04:08:33;7.40;1.00
7048;DHT22;3565;53.254;10.352;2022-10-26T04:11:02;7.40;1.00
7048;DHT22;3565;53.254;10.352;2022-10-26T04:13:30;7.40;1.00
7048;DHT22;3565;53.254;10.352;2022-10-26T04:15:59;7.40;1.00
7048;DHT22;3565;53.254;10.352;2022-10-26T04:18:28;7.40;1.00
7048;DHT22;3565;53.254;10.352;2022-10-26T04:21:00;7.40;1.00
7048;DHT22;3565;53.254;10.352;2022-10-26T04:23:29;7.40;1.00
7048;DHT22;3565;53.254;10.352;2022-10-26T04:25:58;7.40;1.00
7048;DHT22;3565;53.254;10.352;2022-10-26T04:28:27;7.40;1.00
7048;DHT22;3565;53.254;10.352;2022-10-26T04:30:55;7.50;1.00
7048;DHT22;3565;53.254;10.352;2022-10-26T04:33:24;7.50;1.00
7048;DHT22;3565;53.254;10.352;2022-10-26T04:35:57;7.50;1.00
7048;DHT22;3565;53.254;10.352;2022-10-26T04:38:27;7.50;1.00
7048;DHT22;3565;53.254;10.352;2022-10-26T04:40:55;7.50;1.00
7048;DHT22;3565;53.254;10.352;2022-10-26T04:43:24;7.50;1.00
7048;DHT22;3565;53.254;10.352;2022-10-26T04:45:55;7.50;1.00
7048;DHT22;3565;53.254;10.352;2022-10-26T04:48:24;7.50;1.00
7048;DHT22;3565;53.254;10.352;2022-10-26T04:50:53;7.50;1.00
7048;DHT22;3565;53.254;10.352;2022-10-26T04:53:22;7.40;1.00
7048;DHT22;3565;53.254;10.352;2022-10-26T04:55:55;7.40;1.00
7048;DHT22;3565;53.254;10.352;2022-10-26T04:58:24;7.40;1.00
7048;DHT22;3565;53.254;10.352;2022-10-26T05:00:53;7.40;1.00
7048;DHT22;3565;53.254;10.352;2022-10-26T05:03:22;7.40;1.00
7048;DHT22;3565;53.254;10.352;2022-10-26T05:05:50;7.40;1.00
7048;DHT22;3565;53.254;10.352;2022-10-26T05:08:19;7.40;1.00
7048;DHT22;3565;53.254;10.352;2022-10-26T05:10:49;7.40;1.00
7048;DHT22;3565;53.254;10.352;2022-10-26T05:13:17;7.40;1.00
7048;DHT22;3565;53.254;10.352;2022-10-26T05:15:46;7.30;1.00
7048;DHT22;3565;53.254;10.352;2022-10-26T05:20:43;7.30;1.00
7048;DHT22;3565;53.254;10.352;2022-10-26T05:23:12;7.30;1.00
7048;DHT22;3565;53.254;10.352;2022-10-26T05:25:42;7.30;1.00
7048;DHT22;3565;53.254;10.352;2022-10-26T05:28:13;7.30;1.00
7048;DHT22;3565;53.254;10.352;2022-10-26T05:30:42;7.30;1.00
7048;DHT22;3565;53.254;10.352;2022-10-26T05:33:12;7.30;1.00
7048;DHT22;3565;53.254;10.352;2022-10-26T05:35:42;7.30;1.00
7048;DHT22;3565;53.254;10.352;2022-10-26T05:38:13;7.30;1.00
7048;DHT22;3565;53.254;10.352;2022-10-26T05:40:47;7.30;1.00
7048;DHT22;3565;53.254;10.352;2022-10-26T05:43:17;7.30;1.00
7048;DHT22;3565;53.254;10.352;2022-10-26T05:45:46;7.30;1.00
7048;DHT22;3565;53.254;10.352;2022-10-26T05:48:17;9.40;1.00
7048;DHT22;3565;53.254;10.352;2022-10-26T05:50:46;7.30;1.00
7048;DHT22;3565;53.254;10.352;2022-10-26T05:55:44;7.30;1.00
7048;DHT22;3565;53.254;10.352;2022-10-26T05:58:15;7.30;1.00
7048;DHT22;3565;53.254;10.352;2022-10-26T06:03:37;7.30;1.00
7048;DHT22;3565;53.254;10.352;2022-10-26T06:06:07;7.30;1.00
7048;DHT22;3565;53.254;10.352;2022-10-26T06:08:39;7.30;1.00
7048;DHT22;3565;53.254;10.352;2022-10-26T06:11:12;7.30;1.00
7048;DHT22;3565;53.254;10.352;2022-10-26T06:13:42;7.30;1.00
7048;DHT22;3565;53.254;10.352;2022-10-26T06:16:23;7.30;1.00
7048;DHT22;3565;53.254;10.352;2022-10-26T06:18:56;7.30;1.00
7048;DHT22;3565;53.254;10.352;2022-10-26T06:21:35;7.30;1.00
7048;DHT22;3565;53.254;10.352;2022-10-26T06:24:07;7.30;1.00
7048;DHT22;3565;53.254;10.352;2022-10-26T06:26:40;7.30;1.00
7048;DHT22;3565;53.254;10.352;2022-10-26T06:29:21;7.40;1.00
7048;DHT22;3565;53.254;10.352;2022-10-26T06:31:51;7.40;1.00
7048;DHT22;3565;53.254;10.352;2022-10-26T06:34:24;7.40;1.00
7048;DHT22;3565;53.254;10.352;2022-10-26T06:36:55;7.40;1.00
7048;DHT22;3565;53.254;10.352;2022-10-26T06:39:26;7.50;1.00
7048;DHT22;3565;53.254;10.352;2022-10-26T06:41:57;7.40;1.00
7048;DHT22;3565;53.254;10.352;2022-10-26T06:44:27;7.50;1.00
7048;DHT22;3565;53.254;10.352;2022-10-26T06:47:01;7.40;1.00
7048;DHT22;3565;53.254;10.352;2022-10-26T06:49:34;7.40;1.00
7048;DHT22;3565;53.254;10.352;2022-10-26T06:52:07;7.40;1.00
7048;DHT22;3565;53.254;10.352;2022-10-26T06:54:44;7.40;1.00
7048;DHT22;3565;53.254;10.352;2022-10-26T06:57:16;7.50;1.00
7048;DHT22;3565;53.254;10.352;2022-10-26T06:59:47;7.50;1.00
7048;DHT22;3565;53.254;10.352;2022-10-26T07:02:16;7.60;1.00
7048;DHT22;3565;53.254;10.352;2022-10-26T07:04:45;7.60;1.00
7048;DHT22;3565;53.254;10.352;2022-10-26T07:07:16;7.60;1.00
7048;DHT22;3565;53.254;10.352;2022-10-26T07:09:45;7.70;1.00
7048;DHT22;3565;53.254;10.352;2022-10-26T07:12:14;7.70;1.00
7048;DHT22;3565;53.254;10.352;2022-10-26T07:14:43;7.70;1.00
7048;DHT22;3565;53.254;10.352;2022-10-26T07:33:03;8.50;1.00
7048;DHT22;3565;53.254;10.352;2022-10-26T07:35:33;8.50;1.00
7048;DHT22;3565;53.254;10.352;2022-10-26T07:38:02;8.80;1.00
7048;DHT22;3565;53.254;10.352;2022-10-26T07:40:32;8.90;1.00
7048;DHT22;3565;53.254;10.352;2022-10-26T07:50:52;9.30;1.00
7048;DHT22;3565;53.254;10.352;2022-10-26T07:55:53;9.50;1.00
7048;DHT22;3565;53.254;10.352;2022-10-26T07:58:22;9.60;1.00
7048;DHT22;3565;53.254;10.352;2022-10-26T08:00:53;9.90;1.00
7048;DHT22;3565;53.254;10.352;2022-10-26T08:03:22;10.20;1.00
7048;DHT22;3565;53.254;10.352;2022-10-26T08:08:29;10.70;1.00
7048;DHT22;3565;53.254;10.352;2022-10-26T08:10:58;11.10;1.00
7048;DHT22;3565;53.254;10.352;2022-10-26T08:13:27;11.50;1.00
7048;DHT22;3565;53.254;10.352;2022-10-26T08:18:48;11.60;99.90
7048;DHT22;3565;53.254;10.352;2022-10-26T08:21:17;11.50;99.90
7048;DHT22;3565;53.254;10.352;2022-10-26T08:28:58;11.80;99.90
7048;DHT22;3565;53.254;10.352;2022-10-26T08:31:27;12.00;99.90
7048;DHT22;3565;53.254;10.352;2022-10-26T08:33:56;11.90;99.90
7048;DHT22;3565;53.254;10.352;2022-10-26T08:36:27;11.90;99.90
7048;DHT22;3565;53.254;10.352;2022-10-26T08:38:56;11.90;99.90
7048;DHT22;3565;53.254;10.352;2022-10-26T08:43:57;12.60;99.90
7048;DHT22;3565;53.254;10.352;2022-10-26T08:48:59;12.80;99.90
7048;DHT22;3565;53.254;10.352;2022-10-26T08:51:31;12.10;99.90
7048;DHT22;3565;53.254;10.352;2022-10-26T08:54:05;12.50;99.90
7048;DHT22;3565;53.254;10.352;2022-10-26T08:56:36;12.80;99.90
7048;DHT22;3565;53.254;10.352;2022-10-26T09:01:54;12.80;99.90
7048;DHT22;3565;53.254;10.352;2022-10-26T09:04:25;13.00;99.90
7048;DHT22;3565;53.254;10.352;2022-10-26T09:06:58;12.90;99.90
7048;DHT22;3565;53.254;10.352;2022-10-26T09:09:31;13.20;99.90
7048;DHT22;3565;53.254;10.352;2022-10-26T09:12:03;13.80;99.90
7048;DHT22;3565;53.254;10.352;2022-10-26T09:14:37;14.20;99.90
7048;DHT22;3565;53.254;10.352;2022-10-26T09:17:12;14.70;99.90
7048;DHT22;3565;53.254;10.352;2022-10-26T09:19:58;14.70;99.90
7048;DHT22;3565;53.254;10.352;2022-10-26T09:22:30;15.10;99.90
7048;DHT22;3565;53.254;10.352;2022-10-26T09:25:02;14.50;99.90
7048;DHT22;3565;53.254;10.352;2022-10-26T09:27:34;14.50;99.90
7048;DHT22;3565;53.254;10.352;2022-10-26T09:30:11;14.40;99.90
7048;DHT22;3565;53.254;10.352;2022-10-26T09:32:41;14.90;99.90
7048;DHT22;3565;53.254;10.352;2022-10-26T09:35:16;16.00;8.80
7048;DHT22;3565;53.254;10.352;2022-10-26T09:37:48;14.90;99.90
7048;DHT22;3565;53.254;10.352;2022-10-26T09:40:21;14.90;99.90
7048;DHT22;3565;53.254;10.352;2022-10-26T09:45:37;15.40;1.00
7048;DHT22;3565;53.254;10.352;2022-10-26T09:48:10;15.00;1.00
7048;DHT22;3565;53.254;10.352;2022-10-26T09:50:41;15.00;1.00
7048;DHT22;3565;53.254;10.352;2022-10-26T09:53:10;15.30;1.00
7048;DHT22;3565;53.254;10.352;2022-10-26T09:55:41;15.80;1.00
7048;DHT22;3565;53.254;10.352;2022-10-26T09:58:13;15.70;1.00
7048;DHT22;3565;53.254;10.352;2022-10-26T10:00:44;15.60;99.90
7048;DHT22;3565;53.254;10.352;2022-10-26T10:03:21;15.20;1.00
7048;DHT22;3565;53.254;10.352;2022-10-26T10:05:50;15.70;1.00
7048;DHT22;3565;53.254;10.352;2022-10-26T10:08:20;15.80;99.90
7048;DHT22;3565;53.254;10.352;2022-10-26T10:10:58;15.70;99.90
7048;DHT22;3565;53.254;10.352;2022-10-26T10:13:29;15.70;1.00
7048;DHT22;3565;53.254;10.352;2022-10-26T10:16:04;15.70;1.00
7048;DHT22;3565;53.254;10.352;2022-10-26T10:18:33;15.70;1.00
7048;DHT22;3565;53.254;10.352;2022-10-26T10:21:05;16.30;99.90
7048;DHT22;3565;53.254;10.352;2022-10-26T10:23:36;16.50;1.00
7048;DHT22;3565;53.254;10.352;2022-10-26T10:26:07;16.60;99.90
7048;DHT22;3565;53.254;10.352;2022-10-26T10:28:40;16.20;99.90
7048;DHT22;3565;53.254;10.352;2022-10-26T10:31:19;16.20;1.00
7048;DHT22;3565;53.254;10.352;2022-10-26T10:33:49;16.20;1.00
7048;DHT22;3565;53.254;10.352;2022-10-26T10:36:21;16.60;99.90
7048;DHT22;3565;53.254;10.352;2022-10-26T10:38:51;16.40;99.90
7048;DHT22;3565;53.254;10.352;2022-10-26T10:41:25;17.70;99.90
7048;DHT22;3565;53.254;10.352;2022-10-26T10:43:56;17.80;99.90
7048;DHT22;3565;53.254;10.352;2022-10-26T10:46:26;18.60;1.00
7048;DHT22;3565;53.254;10.352;2022-10-26T10:51:40;17.70;29.00
7048;DHT22;3565;53.254;10.352;2022-10-26T10:54:19;17.00;99.90
7048;DHT22;3565;53.254;10.352;2022-10-26T10:56:50;17.50;99.90
7048;DHT22;3565;53.254;10.352;2022-10-26T11:02:30;17.70;99.90
7048;DHT22;3565;53.254;10.352;2022-10-26T11:05:18;17.70;99.90
7048;DHT22;3565;53.254;10.352;2022-10-26T11:10:35;18.00;68.60
7048;DHT22;3565;53.254;10.352;2022-10-26T11:13:06;18.70;1.00
7048;DHT22;3565;53.254;10.352;2022-10-26T11:15:37;18.20;99.90
7048;DHT22;3565;53.254;10.352;2022-10-26T11:18:11;18.20;99.90
7048;DHT22;3565;53.254;10.352;2022-10-26T11:20:41;18.30;20.00
7048;DHT22;3565;53.254;10.352;2022-10-26T11:23:14;18.20;34.40
7048;DHT22;3565;53.254;10.352;2022-10-26T11:25:47;18.20;99.90
7048;DHT22;3565;53.254;10.352;2022-10-26T11:28:19;18.20;99.90
7048;DHT22;3565;53.254;10.352;2022-10-26T11:30:53;18.60;1.00
7048;DHT22;3565;53.254;10.352;2022-10-26T11:33:24;18.80;1.00
7048;DHT22;3565;53.254;10.352;2022-10-26T11:35:56;18.20;90.30
7048;DHT22;3565;53.254;10.352;2022-10-26T11:38:30;18.90;1.00
7048;DHT22;3565;53.254;10.352;2022-10-26T11:41:03;19.00;1.00
7048;DHT22;3565;53.254;10.352;2022-10-26T11:43:36;19.00;1.00
7048;DHT22;3565;53.254;10.352;2022-10-26T11:46:08;18.40;1.00
7048;DHT22;3565;53.254;10.352;2022-10-26T11:48:41;18.80;1.00
7048;DHT22;3565;53.254;10.352;2022-10-26T11:51:14;18.80;1.00
7048;DHT22;3565;53.254;10.352;2022-10-26T11:53:44;18.70;1.00
7048;DHT22;3565;53.254;10.352;2022-10-26T11:56:18;18.70;1.00
7048;DHT22;3565;53.254;10.352;2022-10-26T11:58:46;18.50;91.00
7048;DHT22;3565;53.254;10.352;2022-10-26T12:01:17;18.40;1.00
7048;DHT22;3565;53.254;10.352;2022-10-26T12:03:48;18.60;60.00
7048;DHT22;3565;53.254;10.352;2022-10-26T12:06:21;18.50;3.90
7048;DHT22;3565;53.254;10.352;2022-10-26T12:08:54;18.80;1.00
7048;DHT22;3565;53.254;10.352;2022-10-26T12:11:31;19.00;1.00
7048;DHT22;3565;53.254;10.352;2022-10-26T12:14:03;18.90;1.00
7048;DHT22;3565;53.254;10.352;2022-10-26T12:16:40;19.20;1.00
7048;DHT22;3565;53.254;10.352;2022-10-26T12:21:40;19.00;1.00
7048;DHT22;3565;53.254;10.352;2022-10-26T12:24:27;19.10;1.00
7048;DHT22;3565;53.254;10.352;2022-10-26T12:26:57;20.30;99.90
7048;DHT22;3565;53.254;10.352;2022-10-26T12:29:29;19.50;99.90
7048;DHT22;3565;53.254;10.352;2022-10-26T12:31:58;19.20;1.00
7048;DHT22;3565;53.254;10.352;2022-10-26T12:34:56;19.10;92.20
7048;DHT22;3565;53.254;10.352;2022-10-26T12:37:34;18.90;1.00
7048;DHT22;3565;53.254;10.352;2022-10-26T12:40:41;19.40;1.00
7048;DHT22;3565;53.254;10.352;2022-10-26T12:43:35;19.60;1.00
7048;DHT22;3565;53.254;10.352;2022-10-26T12:57:58;18.60;1.00
7048;DHT22;3565;53.254;10.352;2022-10-26T13:00:28;18.70;1.00
7048;DHT22;3565;53.254;10.352;2022-10-26T13:03:05;19.40;99.90
7048;DHT22;3565;53.254;10.352;2022-10-26T13:05:48;19.30;99.90
7048;DHT22;3565;53.254;10.352;2022-10-26T13:08:16;19.30;1.00
7048;DHT22;3565;53.254;10.352;2022-10-26T13:13:20;19.20;99.90
7048;DHT22;3565;53.254;10.352;2022-10-26T13:15:55;19.20;99.90
7048;DHT22;3565;53.254;10.352;2022-10-26T13:18:25;18.30;1.00
7048;DHT22;3565;53.254;10.352;2022-10-26T13:20:59;18.20;93.30
7048;DHT22;3565;53.254;10.352;2022-10-26T13:23:30;18.20;1.00
7048;DHT22;3565;53.254;10.352;2022-10-26T13:26:08;17.90;99.90
7048;DHT22;3565;53.254;10.352;2022-10-26T13:28:50;17.80;99.90
7048;DHT22;3565;53.254;10.352;2022-10-26T13:34:13;17.80;99.90
7048;DHT22;3565;53.254;10.352;2022-10-26T13:36:45;17.80;99.90
7048;DHT22;3565;53.254;10.352;2022-10-26T13:39:17;17.80;99.90
7048;DHT22;3565;53.254;10.352;2022-10-26T13:41:49;17.80;99.90
7048;DHT22;3565;53.254;10.352;2022-10-26T13:44:22;17.70;99.90
7048;DHT22;3565;53.254;10.352;2022-10-26T13:49:35;17.60;99.90
7048;DHT22;3565;53.254;10.352;2022-10-26T13:52:10;17.60;99.90
7048;DHT22;3565;53.254;10.352;2022-10-26T13:54:38;17.40;99.90
7048;DHT22;3565;53.254;10.352;2022-10-26T13:57:14;17.40;99.90
7048;DHT22;3565;53.254;10.352;2022-10-26T13:59:45;17.50;99.90
7048;DHT22;3565;53.254;10.352;2022-10-26T14:02:21;17.80;99.90
7048;DHT22;3565;53.254;10.352;2022-10-26T14:04:53;18.10;99.90
7048;DHT22;3565;53.254;10.352;2022-10-26T14:07:25;18.10;99.90
7048;DHT22;3565;53.254;10.352;2022-10-26T14:09:56;18.00;99.90
7048;DHT22;3565;53.254;10.352;2022-10-26T14:12:26;17.80;99.90
7048;DHT22;3565;53.254;10.352;2022-10-26T14:14:59;17.60;99.90
7048;DHT22;3565;53.254;10.352;2022-10-26T14:17:28;17.60;99.90
7048;DHT22;3565;53.254;10.352;2022-10-26T14:19:57;17.30;99.90
7048;DHT22;3565;53.254;10.352;2022-10-26T14:22:27;17.30;99.90
7048;DHT22;3565;53.254;10.352;2022-10-26T14:24:57;17.20;99.90
7048;DHT22;3565;53.254;10.352;2022-10-26T14:27:30;17.20;99.90
7048;DHT22;3565;53.254;10.352;2022-10-26T14:29:59;17.10;99.90
7048;DHT22;3565;53.254;10.352;2022-10-26T14:32:31;17.00;99.90
7048;DHT22;3565;53.254;10.352;2022-10-26T14:35:00;17.10;99.90
7048;DHT22;3565;53.254;10.352;2022-10-26T14:53:31;17.50;99.90
7048;DHT22;3565;53.254;10.352;2022-10-26T14:56:04;17.20;99.90
7048;DHT22;3565;53.254;10.352;2022-10-26T14:58:34;17.20;99.90
7048;DHT22;3565;53.254;10.352;2022-10-26T15:04:27;17.10;99.90
7048;DHT22;3565;53.254;10.352;2022-10-26T15:07:07;17.10;99.90
7048;DHT22;3565;53.254;10.352;2022-10-26T15:09:41;17.20;99.90
7048;DHT22;3565;53.254;10.352;2022-10-26T15:12:24;17.10;99.90
7048;DHT22;3565;53.254;10.352;2022-10-26T15:14:53;17.20;99.90
7048;DHT22;3565;53.254;10.352;2022-10-26T15:17:24;17.50;99.90
7048;DHT22;3565;53.254;10.352;2022-10-26T15:19:54;17.70;99.90
7048;DHT22;3565;53.254;10.352;2022-10-26T15:22:26;17.50;99.90
7048;DHT22;3565;53.254;10.352;2022-10-26T15:24:57;17.50;99.90
7048;DHT22;3565;53.254;10.352;2022-10-26T15:27:26;17.50;99.90
7048;DHT22;3565;53.254;10.352;2022-10-26T15:30:15;17.20;1.00
7048;DHT22;3565;53.254;10.352;2022-10-26T15:32:43;17.10;99.90
7048;DHT22;3565;53.254;10.352;2022-10-26T15:35:29;17.00;99.90
7048;DHT22;3565;53.254;10.352;2022-10-26T15:37:59;16.90;99.90
7048;DHT22;3565;53.254;10.352;2022-10-26T15:40:28;16.60;1.00
7048;DHT22;3565;53.254;10.352;2022-10-26T15:42:59;16.40;1.00
7048;DHT22;3565;53.254;10.352;2022-10-26T15:45:30;16.20;1.00
7048;DHT22;3565;53.254;10.352;2022-10-26T15:48:15;16.10;1.00
7048;DHT22;3565;53.254;10.352;2022-10-26T15:50:45;16.00;1.00
7048;DHT22;3565;53.254;10.352;2022-10-26T15:53:19;15.80;1.00
7048;DHT22;3565;53.254;10.352;2022-10-26T15:55:49;15.70;1.00
7048;DHT22;3565;53.254;10.352;2022-10-26T15:58:18;15.60;1.00
7048;DHT22;3565;53.254;10.352;2022-10-26T16:00:47;15.50;4.80
7048;DHT22;3565;53.254;10.352;2022-10-26T16:03:19;15.40;78.30
7048;DHT22;3565;53.254;10.352;2022-10-26T16:05:49;15.30;99.90
7048;DHT22;3565;53.254;10.352;2022-10-26T16:08:19;15.20;99.90
7048;DHT22;3565;53.254;10.352;2022-10-26T16:10:48;15.00;99.90
7048;DHT22;3565;53.254;10.352;2022-10-26T16:13:18;15.00;99.90
7048;DHT22;3565;53.254;10.352;2022-10-26T16:15:49;14.90;99.90
7048;DHT22;3565;53.254;10.352;2022-10-26T16:18:18;14.90;99.90
7048;DHT22;3565;53.254;10.352;2022-10-26T16:20:47;14.80;99.90
7048;DHT22;3565;53.254;10.352;2022-10-26T16:23:16;14.70;99.90
7048;DHT22;3565;53.254;10.352;2022-10-26T16:25:45;14.60;99.90
7048;DHT22;3565;53.254;10.352;2022-10-26T16:28:15;14.50;99.90
7048;DHT22;3565;53.254;10.352;2022-10-26T16:30:44;14.50;99.90
7048;DHT22;3565;53.254;10.352;2022-10-26T16:33:13;14.50;99.90
7048;DHT22;3565;53.254;10.352;2022-10-26T16:35:42;14.30;99.90
7048;DHT22;3565;53.254;10.352;2022-10-26T16:38:11;14.20;99.90
7048;DHT22;3565;53.254;10.352;2022-10-26T16:40:40;14.30;99.90
7048;DHT22;3565;53.254;10.352;2022-10-26T16:43:10;14.10;99.90
7048;DHT22;3565;53.254;10.352;2022-10-26T16:45:40;14.10;99.90
7048;DHT22;3565;53.254;10.352;2022-10-26T16:48:08;14.10;99.90
7048;DHT22;3565;53.254;10.352;2022-10-26T16:50:40;14.00;99.90
7048;DHT22;3565;53.254;10.352;2022-10-26T16:53:09;14.00;99.90
7048;DHT22;3565;53.254;10.352;2022-10-26T16:55:38;13.90;99.90
7048;DHT22;3565;53.254;10.352;2022-10-26T16:58:06;13.90;99.90
7048;DHT22;3565;53.254;10.352;2022-10-26T17:00:36;13.90;99.90
7048;DHT22;3565;53.254;10.352;2022-10-26T17:05:43;13.80;1.00
7048;DHT22;3565;53.254;10.352;2022-10-26T17:08:12;13.70;1.00
7048;DHT22;3565;53.254;10.352;2022-10-26T17:10:40;13.70;1.00
7048;DHT22;3565;53.254;10.352;2022-10-26T17:13:09;13.70;1.00
7048;DHT22;3565;53.254;10.352;2022-10-26T17:15:38;13.60;1.00
7048;DHT22;3565;53.254;10.352;2022-10-26T17:18:07;13.60;1.00
7048;DHT22;3565;53.254;10.352;2022-10-26T17:20:37;13.60;1.00
7048;DHT22;3565;53.254;10.352;2022-10-26T17:23:06;13.50;1.00
7048;DHT22;3565;53.254;10.352;2022-10-26T17:25:35;13.50;1.00
7048;DHT22;3565;53.254;10.352;2022-10-26T17:28:05;13.50;1.00
7048;DHT22;3565;53.254;10.352;2022-10-26T17:30:34;13.40;1.00
7048;DHT22;3565;53.254;10.352;2022-10-26T17:33:03;13.40;1.00
7048;DHT22;3565;53.254;10.352;2022-10-26T17:35:32;13.40;1.00
7048;DHT22;3565;53.254;10.352;2022-10-26T17:38:02;13.40;1.00
7048;DHT22;3565;53.254;10.352;2022-10-26T17:40:31;13.40;1.00
7048;DHT22;3565;53.254;10.352;2022-10-26T17:43:00;13.30;1.00
7048;DHT22;3565;53.254;10.352;2022-10-26T17:45:29;13.30;1.00
7048;DHT22;3565;53.254;10.352;2022-10-26T17:47:57;13.30;1.00
7048;DHT22;3565;53.254;10.352;2022-10-26T17:50:26;13.30;1.00
7048;DHT22;3565;53.254;10.352;2022-10-26T17:52:55;13.30;1.00
7048;DHT22;3565;53.254;10.352;2022-10-26T17:57:52;13.20;1.00
7048;DHT22;3565;53.254;10.352;2022-10-26T18:00:21;13.10;1.00
7048;DHT22;3565;53.254;10.352;2022-10-26T18:05:18;13.10;1.00
7048;DHT22;3565;53.254;10.352;2022-10-26T18:07:46;13.10;1.00
7048;DHT22;3565;53.254;10.352;2022-10-26T18:10:15;13.10;1.00
7048;DHT22;3565;53.254;10.352;2022-10-26T18:12:44;13.10;1.00
7048;DHT22;3565;53.254;10.352;2022-10-26T18:15:13;13.10;1.00
7048;DHT22;3565;53.254;10.352;2022-10-26T18:17:42;13.10;1.00
7048;DHT22;3565;53.254;10.352;2022-10-26T18:20:11;13.10;1.00
7048;DHT22;3565;53.254;10.352;2022-10-26T18:25:19;13.10;1.00
7048;DHT22;3565;53.254;10.352;2022-10-26T18:27:48;13.10;1.00
7048;DHT22;3565;53.254;10.352;2022-10-26T18:32:46;13.20;1.00
7048;DHT22;3565;53.254;10.352;2022-10-26T18:35:16;13.20;1.00
7048;DHT22;3565;53.254;10.352;2022-10-26T18:37:45;13.10;1.00
7048;DHT22;3565;53.254;10.352;2022-10-26T18:42:52;13.20;1.00
7048;DHT22;3565;53.254;10.352;2022-10-26T18:45:21;13.10;1.00
7048;DHT22;3565;53.254;10.352;2022-10-26T18:50:17;13.10;1.00
7048;DHT22;3565;53.254;10.352;2022-10-26T18:52:46;13.10;1.00
7048;DHT22;3565;53.254;10.352;2022-10-26T18:57:43;13.00;1.00
7048;DHT22;3565;53.254;10.352;2022-10-26T19:00:14;13.00;1.00
7048;DHT22;3565;53.254;10.352;2022-10-26T19:02:43;13.00;1.00
7048;DHT22;3565;53.254;10.352;2022-10-26T19:05:12;13.00;1.00
7048;DHT22;3565;53.254;10.352;2022-10-26T19:07:41;12.90;1.00
7048;DHT22;3565;53.254;10.352;2022-10-26T19:10:10;12.90;1.00